Time;durP1;ratioP1;P1;durP2;ratioP2;P2;SDS_P1;SDS_P2;PMS_P1;PMS_P2;Temp;Humidity;BMP_temperature;BMP_pressure;BME280_temperature;BME280_humidity;BME280_pressure;Samples;Min_cycle;Max_cycle;Signal;HPM_P1;HPM_P2
2022/04/25 00:00:16;;;;;;;10.38;8.48;;;11.00;99.90;;;;;;5094002;28;20226;-65
2022/04/25 00:02:43;;;;;;;10.45;8.20;;;10.90;99.90;;;;;;5081941;28;20854;-65
2022/04/25 00:05:10;;;;;;;17.42;13.05;;;10.90;99.90;;;;;;5082516;28;20230;-65
2022/04/25 00:07:37;;;;;;;13.32;10.18;;;10.90;99.90;;;;;;5080232;28;20736;-64
2022/04/25 00:10:05;;;;;;;10.63;8.48;;;10.90;99.90;;;;;;5093009;28;20234;-65
2022/04/25 00:12:32;;;;;;;11.32;10.15;;;10.80;99.90;;;;;;5093600;28;20682;-65
2022/04/25 00:15:00;;;;;;;9.27;7.72;;;10.80;99.90;;;;;;5093419;28;20219;-65
2022/04/25 00:17:28;;;;;;;10.93;8.93;;;10.80;99.90;;;;;;5093074;28;20614;-65
2022/04/25 00:19:54;;;;;;;12.80;10.32;;;10.80;99.90;;;;;;5093031;28;20220;-65
2022/04/25 00:22:21;;;;;;;9.25;8.35;;;10.70;99.90;;;;;;5093466;28;20219;-65
2022/04/25 00:24:50;;;;;;;15.52;9.43;;;10.70;99.90;;;;;;5093025;28;20238;-65
2022/04/25 00:27:17;;;;;;;13.02;9.73;;;10.70;99.90;;;;;;5093588;28;20280;-65
2022/04/25 00:29:44;;;;;;;13.73;8.70;;;10.70;99.90;;;;;;5092472;28;20226;-65
2022/04/25 00:32:12;;;;;;;12.35;8.35;;;10.70;99.90;;;;;;5093122;28;20253;-65
2022/04/25 00:34:38;;;;;;;17.88;9.38;;;10.80;99.90;;;;;;5093568;28;20580;-65
2022/04/25 00:37:05;;;;;;;10.88;9.88;;;10.80;99.90;;;;;;5093027;28;20224;-64
2022/04/25 00:39:32;;;;;;;11.73;9.65;;;10.70;99.90;;;;;;5092098;28;20227;-64
2022/04/25 00:41:59;;;;;;;14.68;12.55;;;10.70;99.90;;;;;;5092805;28;20231;-64
2022/04/25 00:44:26;;;;;;;11.85;8.73;;;10.60;99.90;;;;;;5092972;28;20219;-65
2022/04/25 00:46:54;;;;;;;13.05;9.32;;;10.60;99.90;;;;;;5079429;28;20208;-64
2022/04/25 00:49:23;;;;;;;11.50;9.85;;;10.60;99.90;;;;;;5093114;28;20223;-64
2022/04/25 00:51:51;;;;;;;10.80;9.70;;;10.60;99.90;;;;;;5085454;28;20619;-65
2022/04/25 00:54:18;;;;;;;11.77;10.57;;;10.60;99.90;;;;;;5079617;28;20227;-65
2022/04/25 00:56:46;;;;;;;11.00;9.90;;;10.60;99.90;;;;;;5092614;28;20223;-64
2022/04/25 00:59:16;;;;;;;10.95;9.27;;;10.60;99.90;;;;;;5088345;28;20227;-65
2022/04/25 01:01:43;;;;;;;11.27;9.75;;;10.60;99.90;;;;;;5082975;28;20224;-65
2022/04/25 01:04:10;;;;;;;12.45;9.40;;;10.50;99.90;;;;;;5092825;28;20231;-64
2022/04/25 01:06:38;;;;;;;9.77;8.77;;;10.50;99.90;;;;;;5092925;28;20234;-65
2022/04/25 01:09:06;;;;;;;11.48;10.40;;;10.50;99.90;;;;;;5092090;28;20224;-65
2022/04/25 01:11:33;;;;;;;11.38;10.23;;;10.50;99.90;;;;;;5092874;28;20227;-65
2022/04/25 01:14:11;;;;;;;11.77;9.93;;;10.50;99.90;;;;;;5091589;28;20220;-65
2022/04/25 01:16:38;;;;;;;11.23;10.18;;;10.50;99.90;;;;;;5092623;28;20223;-64
2022/04/25 01:19:05;;;;;;;11.00;9.90;;;10.50;99.90;;;;;;5092383;28;20223;-65
2022/04/25 01:21:37;;;;;;;16.10;11.63;;;10.50;99.90;;;;;;5092435;28;20228;-64
2022/04/25 01:29:36;;;;;;;13.80;11.35;;;10.50;99.90;;;;;;5092201;28;20320;-64
2022/04/25 01:32:03;;;;;;;12.32;10.98;;;10.40;99.90;;;;;;5092152;28;20254;-65
2022/04/25 01:34:32;;;;;;;13.32;11.50;;;10.40;99.90;;;;;;5097307;28;20230;-64
2022/04/25 01:36:59;;;;;;;15.23;11.77;;;10.40;99.90;;;;;;5099707;27;20562;-64
2022/04/25 01:39:27;;;;;;;18.58;12.30;;;10.40;99.90;;;;;;5093389;28;20303;-64
2022/04/25 01:41:54;;;;;;;15.95;10.38;;;10.40;99.90;;;;;;5083983;28;20239;-64
2022/04/25 01:44:21;;;;;;;12.18;10.95;;;10.40;99.90;;;;;;5092435;28;20219;-64
2022/04/25 01:46:47;;;;;;;16.00;11.45;;;10.50;99.90;;;;;;5099892;28;20266;-63
2022/04/25 01:49:14;;;;;;;12.63;11.43;;;10.40;99.90;;;;;;5092841;28;20219;-65
2022/04/25 01:51:41;;;;;;;12.60;10.90;;;10.40;99.90;;;;;;5089647;28;20228;-64
2022/04/25 01:54:08;;;;;;;14.23;12.10;;;10.40;99.90;;;;;;5096151;28;20226;-65
2022/04/25 01:56:36;;;;;;;16.67;12.65;;;10.30;99.90;;;;;;5096254;28;20223;-65
2022/04/25 01:59:03;;;;;;;16.58;12.40;;;10.30;99.90;;;;;;5095831;28;20239;-65
2022/04/25 02:01:29;;;;;;;15.68;13.60;;;10.30;99.90;;;;;;5090712;28;20236;-65
2022/04/25 02:03:56;;;;;;;15.07;11.27;;;10.40;99.90;;;;;;5101252;28;20681;-65
2022/04/25 02:06:23;;;;;;;13.90;12.23;;;10.30;99.90;;;;;;5096119;28;20215;-63
2022/04/25 02:08:50;;;;;;;15.32;11.80;;;10.40;99.90;;;;;;5095465;28;20238;-63
2022/04/25 02:11:24;;;;;;;12.38;11.15;;;10.30;99.90;;;;;;5095876;28;20227;-64
2022/04/25 02:13:53;;;;;;;16.95;12.55;;;10.30;99.90;;;;;;5095265;28;20595;-64
2022/04/25 02:16:20;;;;;;;12.88;11.48;;;10.40;99.90;;;;;;5096127;28;20230;-64
2022/04/25 02:18:47;;;;;;;14.88;11.98;;;10.40;99.90;;;;;;5095731;28;20261;-64
2022/04/25 02:21:14;;;;;;;13.63;12.18;;;10.40;99.90;;;;;;5095602;28;20211;-64
2022/04/25 02:23:41;;;;;;;14.35;12.15;;;10.40;99.90;;;;;;5095099;28;20224;-64
2022/04/25 02:26:09;;;;;;;15.52;12.32;;;10.40;99.90;;;;;;5095071;28;20238;-64
2022/04/25 02:28:37;;;;;;;14.93;11.82;;;10.40;99.90;;;;;;5095695;28;21197;-64
2022/04/25 02:31:06;;;;;;;14.60;12.32;;;10.40;99.90;;;;;;5094655;28;20231;-64
2022/04/25 02:33:34;;;;;;;13.25;11.23;;;10.50;99.90;;;;;;5095437;28;20704;-64
2022/04/25 02:36:04;;;;;;;14.10;12.38;;;10.50;99.90;;;;;;5095291;28;20224;-64
2022/04/25 02:38:32;;;;;;;17.67;12.88;;;10.50;99.90;;;;;;5094722;28;20256;-64
2022/04/25 02:41:09;;;;;;;14.70;12.75;;;10.50;99.90;;;;;;5093469;28;20288;-63
2022/04/25 02:43:38;;;;;;;14.43;12.93;;;10.60;99.90;;;;;;5094452;28;20238;-63
2022/04/25 02:46:07;;;;;;;13.70;11.95;;;10.60;99.90;;;;;;5102325;28;20223;-65
2022/04/25 02:48:34;;;;;;;13.40;12.10;;;10.70;99.90;;;;;;5095020;28;20571;-64
2022/04/25 02:51:02;;;;;;;15.55;12.77;;;10.70;99.90;;;;;;5085092;28;20224;-63
2022/04/25 02:53:29;;;;;;;14.32;11.38;;;10.80;99.90;;;;;;5095301;28;20223;-64
2022/04/25 02:55:56;;;;;;;16.38;11.70;;;10.70;99.90;;;;;;5094658;28;20295;-64
2022/04/25 02:58:23;;;;;;;14.35;11.38;;;10.80;99.90;;;;;;5094681;28;20234;-65
2022/04/25 03:00:51;;;;;;;17.10;13.48;;;10.80;99.90;;;;;;5094097;28;20246;-64
2022/04/25 03:03:21;;;;;;;15.82;12.45;;;10.80;99.90;;;;;;5093105;28;20273;-65
2022/04/25 03:05:49;;;;;;;14.10;12.65;;;10.80;99.90;;;;;;5094945;28;20224;-64
2022/04/25 03:08:18;;;;;;;12.98;11.73;;;10.70;99.90;;;;;;5094401;28;20426;-65
2022/04/25 03:10:47;;;;;;;13.55;12.10;;;10.60;99.90;;;;;;5094263;28;20235;-65
2022/04/25 03:13:16;;;;;;;14.10;12.70;;;10.60;99.90;;;;;;5094479;28;20227;-65
2022/04/25 03:15:43;;;;;;;15.38;13.73;;;10.60;99.90;;;;;;5094034;28;20223;-64
2022/04/25 03:18:11;;;;;;;16.15;12.07;;;10.50;99.90;;;;;;5094394;28;20231;-64
2022/04/25 03:20:40;;;;;;;14.82;12.85;;;10.60;99.90;;;;;;5094113;28;20223;-64
2022/04/25 03:23:07;;;;;;;16.10;13.20;;;10.50;99.90;;;;;;5094254;28;20356;-63
2022/04/25 03:25:34;;;;;;;19.50;13.35;;;10.50;99.90;;;;;;5094843;28;20227;-65
2022/04/25 03:28:01;;;;;;;13.68;12.27;;;10.50;99.90;;;;;;5093754;28;20227;-65
2022/04/25 03:30:32;;;;;;;17.63;13.93;;;10.50;99.90;;;;;;5094448;28;20219;-65
2022/04/25 03:32:59;;;;;;;13.95;12.07;;;10.40;99.90;;;;;;5093858;28;20234;-63
2022/04/25 03:35:27;;;;;;;17.10;13.35;;;10.30;99.90;;;;;;5093184;28;20223;-64
2022/04/25 03:37:55;;;;;;;12.88;10.80;;;10.30;99.90;;;;;;5094725;28;20223;-64
2022/04/25 03:40:22;;;;;;;15.00;12.00;;;10.30;99.90;;;;;;5080709;28;20637;-64
2022/04/25 03:42:49;;;;;;;15.07;11.70;;;10.30;99.90;;;;;;5093985;28;20227;-63
2022/04/25 03:45:18;;;;;;;15.00;12.90;;;10.30;99.90;;;;;;5093657;28;20230;-64
2022/04/25 03:47:46;;;;;;;13.60;12.30;;;10.30;99.90;;;;;;5094067;28;20629;-63
2022/04/25 03:50:14;;;;;;;13.95;11.80;;;10.30;99.90;;;;;;5093576;28;20671;-64
2022/04/25 03:52:43;;;;;;;15.75;10.82;;;10.30;99.90;;;;;;5093602;28;20224;-63
2022/04/25 03:57:58;;;;;;;13.82;12.40;;;10.40;99.90;;;;;;5094006;28;20748;-64
2022/04/25 04:00:26;;;;;;;15.02;12.73;;;10.40;99.90;;;;;;5093402;28;20211;-64
2022/04/25 04:02:53;;;;;;;14.63;10.85;;;10.40;99.90;;;;;;5093559;28;20224;-64
2022/04/25 04:05:20;;;;;;;16.10;12.13;;;10.40;99.90;;;;;;5093527;28;20791;-64
2022/04/25 04:07:48;;;;;;;14.75;12.95;;;10.40;99.90;;;;;;5093755;28;20223;-66
2022/04/25 04:10:18;;;;;;;18.63;13.63;;;10.40;99.90;;;;;;5093276;28;20229;-63
2022/04/25 04:12:46;;;;;;;13.88;12.10;;;10.50;99.90;;;;;;5091958;28;20234;-64
2022/04/25 04:15:14;;;;;;;19.48;12.30;;;10.40;99.90;;;;;;5092946;28;20223;-64
2022/04/25 04:17:41;;;;;;;16.27;12.05;;;10.40;99.90;;;;;;5093802;28;20566;-64
2022/04/25 04:20:11;;;;;;;13.32;11.20;;;10.40;99.90;;;;;;5093249;28;20234;-64
2022/04/25 04:22:39;;;;;;;15.82;12.60;;;10.40;99.90;;;;;;5093812;28;20227;-65
2022/04/25 04:25:08;;;;;;;17.55;12.00;;;10.30;99.90;;;;;;5093535;28;20227;-64
2022/04/25 04:27:36;;;;;;;16.00;12.30;;;10.40;99.90;;;;;;5093730;28;20223;-64
2022/04/25 04:30:07;;;;;;;13.60;11.70;;;10.40;99.90;;;;;;5093062;28;20225;-64
2022/04/25 04:32:35;;;;;;;13.50;12.18;;;10.40;99.90;;;;;;5093498;28;20223;-65
2022/04/25 04:35:03;;;;;;;14.02;11.80;;;10.30;99.90;;;;;;5093389;28;20227;-65
2022/04/25 04:37:33;;;;;;;17.38;12.88;;;10.30;99.90;;;;;;5092896;28;20237;-64
2022/04/25 04:42:45;;;;;;;16.60;14.52;;;10.30;99.90;;;;;;5093105;28;20258;-65
2022/04/25 04:45:12;;;;;;;16.73;12.00;;;10.30;99.90;;;;;;5092973;28;20848;-65
2022/04/25 04:47:41;;;;;;;15.15;12.75;;;10.30;99.90;;;;;;5093241;28;20234;-65
2022/04/25 04:50:14;;;;;;;14.40;12.90;;;10.20;99.90;;;;;;5092901;28;20227;-65
2022/04/25 04:52:42;;;;;;;15.93;12.93;;;10.20;99.90;;;;;;5092918;28;20227;-64
2022/04/25 04:55:10;;;;;;;14.30;12.80;;;10.30;99.90;;;;;;5092932;28;20265;-64
2022/04/25 04:57:37;;;;;;;14.70;12.90;;;10.30;99.90;;;;;;5093383;28;20224;-64
2022/04/25 05:00:07;;;;;;;13.13;11.82;;;10.30;99.90;;;;;;5092584;28;20228;-65
2022/04/25 05:02:34;;;;;;;13.13;11.93;;;10.20;99.90;;;;;;5093093;28;20227;-65
2022/04/25 05:05:02;;;;;;;13.20;11.48;;;10.30;99.90;;;;;;5092663;28;20238;-64
2022/04/25 05:07:28;;;;;;;13.77;11.57;;;10.30;99.90;;;;;;5093096;28;20224;-64
2022/04/25 05:09:55;;;;;;;16.27;11.38;;;10.30;99.90;;;;;;5092534;28;20233;-65
2022/04/25 05:12:22;;;;;;;15.07;12.10;;;10.30;99.90;;;;;;5093187;28;20229;-64
2022/04/25 05:14:49;;;;;;;11.55;10.23;;;10.30;99.90;;;;;;5092795;28;20234;-64
2022/04/25 05:17:17;;;;;;;12.95;11.05;;;10.30;99.90;;;;;;5092584;28;20223;-64
2022/04/25 05:19:44;;;;;;;13.48;11.10;;;10.30;99.90;;;;;;5093054;28;20227;-65
2022/04/25 05:22:11;;;;;;;13.23;10.32;;;10.30;99.90;;;;;;5092601;28;20602;-64
2022/04/25 05:24:38;;;;;;;12.75;10.98;;;10.20;99.90;;;;;;5092361;28;20237;-64
2022/04/25 05:27:05;;;;;;;12.40;10.65;;;10.30;99.90;;;;;;5092554;28;20544;-64
2022/04/25 05:29:32;;;;;;;12.88;9.95;;;10.30;99.90;;;;;;5092835;28;20250;-65
2022/04/25 05:31:59;;;;;;;11.60;10.50;;;10.30;99.90;;;;;;5092316;28;20754;-64
2022/04/25 05:34:27;;;;;;;14.85;11.68;;;10.40;99.90;;;;;;5093068;28;20332;-65
2022/04/25 05:36:54;;;;;;;12.77;9.90;;;10.40;99.90;;;;;;5092292;28;20623;-64
2022/04/25 05:39:21;;;;;;;11.38;10.18;;;10.40;99.90;;;;;;5092675;28;20235;-64
2022/04/25 05:41:48;;;;;;;10.48;9.38;;;10.40;99.90;;;;;;5092578;28;20314;-64
2022/04/25 05:44:15;;;;;;;11.20;9.48;;;10.50;99.90;;;;;;5092455;28;20300;-64
2022/04/25 05:46:41;;;;;;;11.45;10.25;;;10.50;99.90;;;;;;5092818;28;20237;-64
2022/04/25 05:52:00;;;;;;;8.63;7.53;;;10.60;99.90;;;;;;5092283;28;20689;-63
2022/04/25 05:54:27;;;;;;;8.32;7.47;;;10.60;99.90;;;;;;5091644;28;20227;-64
2022/04/25 05:56:54;;;;;;;9.02;8.00;;;10.60;99.90;;;;;;5092202;28;20568;-64
2022/04/25 05:59:20;;;;;;;9.93;8.63;;;10.60;99.90;;;;;;5091201;28;20247;-64
2022/04/25 06:01:53;;;;;;;10.10;7.93;;;10.70;99.90;;;;;;5091937;28;20230;-63
2022/04/25 06:04:21;;;;;;;8.75;7.38;;;10.60;99.90;;;;;;5092209;28;20235;-65
2022/04/25 06:06:47;;;;;;;9.40;7.85;;;10.70;99.90;;;;;;5092117;28;20255;-64
2022/04/25 06:09:17;;;;;;;8.23;7.50;;;10.70;99.90;;;;;;5091843;28;20696;-64
2022/04/25 06:11:44;;;;;;;8.75;7.75;;;10.70;99.90;;;;;;5092438;28;20235;-64
2022/04/25 06:14:11;;;;;;;8.40;7.55;;;10.80;99.90;;;;;;5092103;28;20235;-64
2022/04/25 06:16:38;;;;;;;10.40;7.22;;;10.80;99.90;;;;;;5092442;28;20224;-64
2022/04/25 06:19:05;;;;;;;8.05;6.85;;;10.80;99.80;;;;;;5092094;28;20231;-64
2022/04/25 06:21:32;;;;;;;10.07;7.15;;;10.80;99.90;;;;;;5092058;28;20238;-64
2022/04/25 06:24:00;;;;;;;8.13;7.32;;;10.90;99.90;;;;;;5092500;28;20243;-64
2022/04/25 06:26:30;;;;;;;7.85;6.43;;;10.90;99.90;;;;;;5092061;28;20295;-65
2022/04/25 06:28:57;;;;;;;7.47;6.72;;;10.90;99.90;;;;;;5092418;28;20219;-64
2022/04/25 06:31:24;;;;;;;8.25;6.60;;;10.90;99.90;;;;;;5091599;28;20215;-63
2022/04/25 06:33:51;;;;;;;8.98;7.13;;;10.90;99.60;;;;;;5092422;28;20238;-64
2022/04/25 06:36:18;;;;;;;9.05;7.32;;;10.90;99.60;;;;;;5091905;28;20220;-63
2022/04/25 06:38:45;;;;;;;7.95;6.78;;;10.90;99.70;;;;;;5095762;28;20227;-64
2022/04/25 06:41:12;;;;;;;9.27;8.48;;;11.00;99.90;;;;;;5095354;28;20242;-64
2022/04/25 06:43:40;;;;;;;7.32;6.63;;;11.10;99.70;;;;;;5095820;28;20304;-64
2022/04/25 06:46:06;;;;;;;7.40;6.68;;;11.10;99.40;;;;;;5095292;28;20226;-64
2022/04/25 06:48:34;;;;;;;8.20;6.18;;;11.10;99.20;;;;;;5095642;28;20223;-64
2022/04/25 06:51:01;;;;;;;9.50;6.90;;;11.20;99.40;;;;;;5095510;28;20567;-64
2022/04/25 06:53:28;;;;;;;10.48;7.22;;;11.20;99.40;;;;;;5095119;28;20234;-64
2022/04/25 06:55:55;;;;;;;8.65;7.75;;;11.30;99.40;;;;;;5095685;28;20572;-64
2022/04/25 06:58:22;;;;;;;10.25;7.63;;;11.40;99.20;;;;;;5094843;28;20238;-65
2022/04/25 07:00:50;;;;;;;8.05;6.68;;;11.40;99.20;;;;;;5095378;28;20227;-64
2022/04/25 07:03:16;;;;;;;9.38;5.90;;;11.40;99.20;;;;;;5094835;28;20230;-63
2022/04/25 07:05:43;;;;;;;7.25;6.20;;;11.50;99.30;;;;;;5095340;28;20223;-64
2022/04/25 07:08:10;;;;;;;7.60;6.70;;;11.50;99.10;;;;;;5095011;28;20427;-62
2022/04/25 07:10:37;;;;;;;7.53;6.80;;;11.60;99.10;;;;;;5095116;28;20224;-64
2022/04/25 07:13:04;;;;;;;6.50;5.88;;;11.60;98.90;;;;;;5095156;28;20215;-64
2022/04/25 07:15:33;;;;;;;9.50;6.57;;;11.60;99.00;;;;;;5094960;28;20219;-64
2022/04/25 07:18:04;;;;;;;8.57;6.40;;;11.60;99.00;;;;;;5095067;28;20319;-64
2022/04/25 07:20:31;;;;;;;9.60;7.07;;;11.70;99.10;;;;;;5094348;28;20215;-64
2022/04/25 07:31:07;;;;;;;9.40;6.88;;;11.60;98.80;;;;;;5085630;28;20680;-64
2022/04/25 07:33:36;;;;;;;17.67;12.07;;;11.60;98.90;;;;;;5094200;28;20219;-64
2022/04/25 07:36:03;;;;;;;9.55;6.70;;;11.60;98.90;;;;;;5094831;28;20310;-64
2022/04/25 07:38:30;;;;;;;12.02;7.45;;;11.70;98.90;;;;;;5094247;28;20235;-64
2022/04/25 07:40:57;;;;;;;11.57;7.93;;;11.70;98.80;;;;;;5094535;28;20227;-65
2022/04/25 07:43:23;;;;;;;8.70;7.22;;;11.70;98.90;;;;;;5094100;28;20231;-64
2022/04/25 07:45:51;;;;;;;8.10;7.25;;;11.70;98.90;;;;;;5094453;28;20227;-64
2022/04/25 07:48:18;;;;;;;6.70;6.05;;;11.70;99.00;;;;;;5093705;28;20215;-63
2022/04/25 07:50:47;;;;;;;10.05;7.63;;;11.70;99.00;;;;;;5094277;28;20216;-64
2022/04/25 07:53:14;;;;;;;8.80;6.30;;;11.70;98.90;;;;;;5094317;28;20222;-64
2022/04/25 07:55:41;;;;;;;12.43;7.63;;;11.70;98.90;;;;;;5093952;28;20227;-64
2022/04/25 07:58:08;;;;;;;10.68;6.70;;;11.70;98.90;;;;;;5094167;28;20219;-63
2022/04/25 08:00:35;;;;;;;6.38;5.70;;;11.80;98.70;;;;;;5093778;28;20619;-64
2022/04/25 08:03:02;;;;;;;11.00;6.43;;;11.80;98.80;;;;;;5094101;28;20300;-63
2022/04/25 08:05:29;;;;;;;8.30;6.57;;;11.80;98.80;;;;;;5093771;28;20254;-65
2022/04/25 08:07:58;;;;;;;13.00;6.40;;;11.80;98.70;;;;;;5093866;28;20226;-64
2022/04/25 08:10:25;;;;;;;8.00;7.03;;;11.80;99.10;;;;;;5093778;28;20231;-65
2022/04/25 08:18:20;;;;;;;8.20;6.85;;;11.90;98.30;;;;;;5073630;28;20632;-65
2022/04/25 08:20:47;;;;;;;9.32;6.35;;;11.90;98.20;;;;;;5072895;28;20230;-65
2022/04/25 08:23:16;;;;;;;9.07;5.93;;;11.90;98.40;;;;;;5073707;28;20391;-65
2022/04/25 08:25:43;;;;;;;11.48;7.60;;;11.90;98.60;;;;;;5073270;28;20705;-63
2022/04/25 08:28:10;;;;;;;7.82;7.03;;;12.00;98.60;;;;;;5073532;28;20219;-63
2022/04/25 08:30:37;;;;;;;9.88;6.25;;;12.00;98.40;;;;;;5072927;28;20220;-64
2022/04/25 08:33:04;;;;;;;5.20;4.72;;;12.00;98.20;;;;;;5073449;28;20216;-63
2022/04/25 08:35:31;;;;;;;5.45;5.00;;;12.10;98.30;;;;;;5072847;28;20227;-64
2022/04/25 08:37:58;;;;;;;7.57;5.78;;;12.10;98.20;;;;;;5073281;28;20215;-63
2022/04/25 08:40:27;;;;;;;10.98;6.00;;;12.10;98.10;;;;;;5072867;28;20228;-64
2022/04/25 08:42:57;;;;;;;9.38;5.75;;;12.10;98.10;;;;;;5073181;28;20220;-64
2022/04/25 08:45:25;;;;;;;7.85;7.10;;;12.20;98.20;;;;;;5072892;28;20262;-64
2022/04/25 08:47:54;;;;;;;6.40;5.78;;;12.30;97.90;;;;;;5072970;28;20678;-64
2022/04/25 08:50:22;;;;;;;7.22;4.35;;;12.20;97.70;;;;;;5073093;28;20242;-65
2022/04/25 08:52:49;;;;;;;6.90;5.97;;;12.30;97.70;;;;;;5087843;28;20227;-65
2022/04/25 08:55:17;;;;;;;7.30;5.65;;;12.30;97.60;;;;;;5093274;28;20223;-64
2022/04/25 08:57:46;;;;;;;5.85;5.35;;;12.30;97.60;;;;;;5092856;28;20234;-64
2022/04/25 09:00:15;;;;;;;6.30;5.13;;;12.40;97.50;;;;;;5092381;28;20231;-63
2022/04/25 09:02:44;;;;;;;5.53;4.90;;;12.40;97.50;;;;;;5092549;28;20237;-64
2022/04/25 09:05:11;;;;;;;9.35;6.05;;;12.50;97.50;;;;;;5093028;28;20268;-65
2022/04/25 09:07:39;;;;;;;5.93;5.32;;;12.50;97.40;;;;;;5092920;28;20222;-64
2022/04/25 09:10:08;;;;;;;5.57;5.07;;;12.60;97.30;;;;;;5093085;28;20219;-64
2022/04/25 09:12:36;;;;;;;7.95;5.50;;;12.60;97.00;;;;;;5092588;28;20231;-63
2022/04/25 09:15:05;;;;;;;7.20;5.20;;;12.60;96.90;;;;;;5093110;28;20229;-63
2022/04/25 09:17:32;;;;;;;6.03;5.28;;;12.60;97.00;;;;;;5092583;28;20234;-64
2022/04/25 09:20:00;;;;;;;6.00;5.43;;;12.70;96.80;;;;;;5092994;28;20681;-64
2022/04/25 09:22:32;;;;;;;6.50;5.60;;;12.70;96.90;;;;;;5092595;28;20702;-64
2022/04/25 09:25:05;;;;;;;9.90;7.28;;;12.70;96.80;;;;;;5092911;28;20219;-64
2022/04/25 09:27:33;;;;;;;7.80;5.75;;;12.80;97.10;;;;;;5092475;28;20237;-64
2022/04/25 09:30:16;;;;;;;5.78;4.78;;;12.90;96.80;;;;;;5092943;28;20237;-64
2022/04/25 09:32:43;;;;;;;6.78;4.78;;;13.00;96.40;;;;;;5092221;28;20223;-64
2022/04/25 09:35:30;;;;;;;6.65;5.10;;;13.00;96.30;;;;;;5092803;28;20233;-64
2022/04/25 09:37:58;;;;;;;5.32;4.45;;;13.10;96.10;;;;;;5092864;28;20223;-63
2022/04/25 09:40:28;;;;;;;6.05;5.47;;;13.20;96.10;;;;;;5092599;28;20226;-63
2022/04/25 09:43:07;;;;;;;5.97;4.97;;;13.20;96.10;;;;;;5092443;28;20669;-65
2022/04/25 09:45:37;;;;;;;6.47;3.95;;;13.20;96.10;;;;;;5092316;28;20226;-65
2022/04/25 09:48:09;;;;;;;6.85;4.70;;;13.30;96.00;;;;;;5092825;28;20604;-65
2022/04/25 09:50:38;;;;;;;9.65;5.30;;;13.40;95.70;;;;;;5092387;28;20928;-64
2022/04/25 09:53:05;;;;;;;4.85;4.45;;;13.40;95.70;;;;;;5092449;28;20692;-64
2022/04/25 09:55:35;;;;;;;5.38;4.32;;;13.40;95.40;;;;;;5092783;28;20223;-64
2022/04/25 09:58:14;;;;;;;8.02;4.93;;;13.50;95.60;;;;;;5092259;28;20222;-63
2022/04/25 10:00:42;;;;;;;6.07;4.47;;;13.60;95.30;;;;;;5092019;28;20614;-64
2022/04/25 10:03:10;;;;;;;5.30;4.80;;;13.60;95.10;;;;;;5092539;28;20561;-64
2022/04/25 10:05:39;;;;;;;4.70;4.20;;;13.70;95.20;;;;;;5092575;28;20572;-63
2022/04/25 10:08:07;;;;;;;5.63;4.93;;;13.90;95.20;;;;;;5092295;28;20688;-63
2022/04/25 10:10:34;;;;;;;4.50;3.67;;;14.00;95.10;;;;;;5093328;28;20472;-64
2022/04/25 10:13:01;;;;;;;4.18;3.83;;;14.10;95.00;;;;;;5095890;28;20223;-64
2022/04/25 10:15:28;;;;;;;4.93;4.43;;;14.10;94.80;;;;;;5096246;28;20238;-64
2022/04/25 10:17:57;;;;;;;7.77;4.57;;;14.20;94.70;;;;;;5095742;28;20962;-64
2022/04/25 10:20:24;;;;;;;5.47;4.70;;;14.30;94.50;;;;;;5096131;28;20983;-64
2022/04/25 10:22:51;;;;;;;5.10;4.60;;;14.30;94.50;;;;;;5095727;28;20465;-65
2022/04/25 10:25:18;;;;;;;4.80;3.80;;;14.40;94.50;;;;;;5096123;28;20464;-64
2022/04/25 10:27:46;;;;;;;4.53;4.13;;;14.40;94.10;;;;;;5095700;28;20472;-65
2022/04/25 10:30:17;;;;;;;5.57;3.83;;;14.50;93.80;;;;;;5096142;28;20226;-64
2022/04/25 10:32:44;;;;;;;4.97;3.13;;;14.50;93.60;;;;;;5095715;28;20476;-65
2022/04/25 10:35:17;;;;;;;6.17;3.93;;;14.50;93.50;;;;;;5095791;28;20461;-65
2022/04/25 10:37:45;;;;;;;5.28;3.90;;;14.50;93.30;;;;;;5095534;28;20473;-64
2022/04/25 10:40:14;;;;;;;5.80;4.03;;;14.50;93.40;;;;;;5095944;28;20671;-64
2022/04/25 10:46:01;;;;;;;5.97;3.87;;;14.50;93.40;;;;;;5094813;28;20497;-64
2022/04/25 10:48:28;;;;;;;4.65;3.58;;;14.60;93.40;;;;;;5094960;28;20477;-64
2022/04/25 10:51:16;;;;;;;4.45;4.05;;;14.60;93.40;;;;;;5095317;28;20227;-64
2022/04/25 10:54:01;;;;;;;4.60;4.10;;;14.70;93.40;;;;;;5074571;28;20243;-64
2022/04/25 10:56:29;;;;;;;6.25;4.65;;;14.60;92.90;;;;;;5078206;28;20457;-64
2022/04/25 10:59:22;;;;;;;5.20;4.50;;;14.60;93.10;;;;;;5095158;28;20239;-63
2022/04/25 11:01:51;;;;;;;5.87;4.30;;;14.60;93.20;;;;;;5077970;28;20684;-63
2022/04/25 11:04:19;;;;;;;4.47;3.50;;;14.70;93.10;;;;;;5091651;28;20473;-63
2022/04/25 11:06:46;;;;;;;5.40;4.07;;;14.70;92.90;;;;;;5072330;28;20463;-64
2022/04/25 11:09:37;;;;;;;4.07;3.13;;;14.80;92.80;;;;;;5073349;28;20493;-64
2022/04/25 11:12:05;;;;;;;7.90;6.30;;;14.80;92.70;;;;;;5073747;28;20960;-64
2022/04/25 11:14:32;;;;;;;5.17;4.67;;;14.80;92.70;;;;;;5086953;28;20464;-64
2022/04/25 11:17:12;;;;;;;4.97;3.57;;;14.80;92.80;;;;;;5093814;28;20476;-65
2022/04/25 11:19:48;;;;;;;5.10;4.60;;;14.80;92.70;;;;;;5094849;28;20450;-63
2022/04/25 11:22:53;;;;;;;5.37;4.20;;;14.80;92.70;;;;;;5093569;28;20469;-63
2022/04/25 11:25:42;;;;;;;5.70;5.10;;;14.90;92.50;;;;;;5075299;28;20469;-63
2022/04/25 11:28:11;;;;;;;7.63;4.87;;;14.90;92.50;;;;;;5074560;28;20525;-63
2022/04/25 11:30:39;;;;;;;7.70;4.23;;;14.90;92.70;;;;;;5074049;28;20553;-64
2022/04/25 11:33:09;;;;;;;5.17;4.53;;;14.90;92.50;;;;;;5074410;28;20469;-65
2022/04/25 11:35:37;;;;;;;6.43;4.40;;;15.00;92.40;;;;;;5074213;28;20849;-63
2022/04/25 11:38:04;;;;;;;4.60;3.83;;;15.00;92.30;;;;;;5074457;28;20535;-65
2022/04/25 11:40:31;;;;;;;6.27;4.40;;;15.10;92.10;;;;;;5073769;28;20474;-64
2022/04/25 11:43:00;;;;;;;7.50;3.57;;;15.10;92.00;;;;;;5074436;28;20481;-63
2022/04/25 11:45:28;;;;;;;3.33;3.03;;;15.20;92.10;;;;;;5073674;28;20466;-64
2022/04/25 11:47:56;;;;;;;3.40;2.90;;;15.20;92.00;;;;;;5074178;28;20462;-64
2022/04/25 11:50:26;;;;;;;4.90;4.40;;;15.20;91.90;;;;;;5073944;28;20524;-64
2022/04/25 11:52:55;;;;;;;6.20;3.63;;;15.30;91.80;;;;;;5075500;28;20477;-65
2022/04/25 11:55:32;;;;;;;3.50;3.10;;;15.20;91.90;;;;;;5090831;28;20565;-64
2022/04/25 11:57:59;;;;;;;3.97;3.67;;;15.30;91.60;;;;;;5092494;28;20506;-64
2022/04/25 12:00:27;;;;;;;4.23;3.50;;;15.40;91.50;;;;;;5091534;28;20481;-66
2022/04/25 12:02:54;;;;;;;4.00;3.60;;;15.40;91.30;;;;;;5092129;28;20480;-64
2022/04/25 12:05:30;;;;;;;4.90;3.17;;;15.40;91.10;;;;;;5092171;28;20465;-63
2022/04/25 12:16:08;;;;;;;3.83;3.03;;;15.50;90.90;;;;;;5093549;28;20457;-65
2022/04/25 12:18:35;;;;;;;4.60;4.10;;;15.50;91.00;;;;;;5093392;28;20466;-64
2022/04/25 12:21:05;;;;;;;4.93;4.30;;;15.60;91.20;;;;;;5093551;28;21318;-64
2022/04/25 12:23:34;;;;;;;3.90;3.60;;;15.60;91.00;;;;;;5088921;28;20462;-64
2022/04/25 12:26:03;;;;;;;5.07;4.57;;;15.70;90.90;;;;;;5090635;28;20485;-64
2022/04/25 12:28:31;;;;;;;4.73;4.30;;;15.70;90.80;;;;;;5093262;28;20540;-64
2022/04/25 12:31:01;;;;;;;7.63;4.50;;;15.80;90.60;;;;;;5093188;28;21025;-64
2022/04/25 12:33:33;;;;;;;4.40;4.00;;;15.80;90.60;;;;;;5092969;28;20473;-64
2022/04/25 12:36:15;;;;;;;5.87;4.30;;;15.80;89.70;;;;;;5093235;28;20462;-63
2022/04/25 12:38:44;;;;;;;5.10;4.27;;;15.70;89.60;;;;;;5092992;28;20843;-64
2022/04/25 12:41:20;;;;;;;4.50;3.70;;;15.70;89.50;;;;;;5093426;28;20466;-64
2022/04/25 12:43:49;;;;;;;6.00;4.53;;;15.70;89.20;;;;;;5092909;28;20456;-64
2022/04/25 12:46:18;;;;;;;4.37;3.97;;;15.70;89.40;;;;;;5093302;28;20610;-63
2022/04/25 12:49:03;;;;;;;4.63;4.10;;;15.70;89.30;;;;;;5092932;28;20449;-64
2022/04/25 12:51:36;;;;;;;4.20;3.80;;;15.80;89.50;;;;;;5087919;28;20478;-64
2022/04/25 12:54:05;;;;;;;4.73;4.30;;;15.80;89.50;;;;;;5090335;28;20461;-64
2022/04/25 12:56:34;;;;;;;4.27;3.87;;;15.90;89.30;;;;;;5092591;28;20831;-64
2022/04/25 12:59:01;;;;;;;6.80;4.13;;;16.00;89.30;;;;;;5093082;28;20469;-64
2022/04/25 13:01:33;;;;;;;4.97;4.50;;;16.00;88.40;;;;;;5084503;28;20975;-64
2022/04/25 13:04:13;;;;;;;4.73;4.40;;;16.00;87.60;;;;;;5092861;28;20463;-64
2022/04/25 13:06:42;;;;;;;5.73;4.70;;;16.10;87.60;;;;;;5092581;28;20461;-65
2022/04/25 13:09:10;;;;;;;5.17;4.67;;;16.10;87.60;;;;;;5092983;28;20462;-64
2022/04/25 13:11:38;;;;;;;5.17;4.57;;;16.20;86.70;;;;;;5092263;28;20469;-64
2022/04/25 13:14:05;;;;;;;3.40;3.13;;;16.20;86.80;;;;;;5092726;28;20473;-64
2022/04/25 13:16:38;;;;;;;5.60;4.10;;;16.20;86.60;;;;;;5092377;28;20473;-64
2022/04/25 13:19:05;;;;;;;5.40;4.90;;;16.30;86.20;;;;;;5092830;28;21009;-64
2022/04/25 13:21:34;;;;;;;5.30;4.67;;;16.30;86.10;;;;;;5091991;28;20474;-64
2022/04/25 13:24:02;;;;;;;4.30;4.00;;;16.30;85.70;;;;;;5092793;28;20497;-64